Time;durP1;ratioP1;P1;durP2;ratioP2;P2;SDS_P1;SDS_P2;PMS_P1;PMS_P2;Temp;Humidity;BMP_temperature;BMP_pressure;BME280_temperature;BME280_humidity;BME280_pressure;Samples;Min_cycle;Max_cycle;Signal;HPM_P1;HPM_P2
2023/10/02 00:01:52;;;;;;;21.83;11.10;;;20.80;91.00;;;;;;6120447;23;20052;-68
2023/10/02 00:04:24;;;;;;;18.17;11.10;;;20.90;98.60;;;;;;6123021;23;20017;-67
2023/10/02 00:07:08;;;;;;;19.63;10.93;;;21.20;98.40;;;;;;6097254;23;20022;-67
2023/10/02 00:09:38;;;;;;;21.60;10.27;;;21.20;89.50;;;;;;6094286;23;20025;-67
2023/10/02 00:12:14;;;;;;;21.95;12.05;;;21.30;98.10;;;;;;6122582;23;20089;-67
2023/10/02 00:14:41;;;;;;;18.55;10.93;;;20.90;96.90;;;;;;6123194;23;20018;-67
2023/10/02 00:17:14;;;;;;;22.52;11.48;;;20.20;98.40;;;;;;6123338;23;20363;-68
2023/10/02 00:19:48;;;;;;;19.40;10.68;;;20.00;97.00;;;;;;6122986;23;20020;-68
2023/10/02 00:25:09;;;;;;;19.65;11.50;;;21.00;96.70;;;;;;6121169;23;20356;-67
2023/10/02 00:27:36;;;;;;;21.15;11.05;;;21.00;95.80;;;;;;6095093;23;20010;-67
2023/10/02 00:30:07;;;;;;;19.38;11.40;;;21.00;99.70;;;;;;6095212;23;20081;-68
2023/10/02 00:32:40;;;;;;;22.52;12.20;;;20.10;95.80;;;;;;6121781;23;20088;-67
2023/10/02 00:35:10;;;;;;;18.73;11.20;;;20.80;93.70;;;;;;6072276;23;20018;-68
2023/10/02 00:37:47;;;;;;;20.02;11.82;;;20.10;80.60;;;;;;6073076;23;20242;-67
2023/10/02 00:40:31;;;;;;;18.17;11.48;;;21.10;91.90;;;;;;6050580;23;20014;-68
2023/10/02 00:45:49;;;;;;;21.42;11.65;;;20.10;91.70;;;;;;6121514;23;20058;-66
2023/10/02 00:48:25;;;;;;;19.17;10.88;;;20.80;91.80;;;;;;6095341;23;20021;-66
2023/10/02 00:50:55;;;;;;;19.85;11.48;;;19.80;88.60;;;;;;6122281;23;20025;-66
2023/10/02 00:53:38;;;;;;;20.52;9.88;;;19.90;70.00;;;;;;6097811;23;20014;-66
2023/10/02 00:56:20;;;;;;;22.45;11.55;;;20.50;87.50;;;;;;6122222;23;20186;-67
2023/10/02 00:58:58;;;;;;;21.08;11.38;;;19.90;86.70;;;;;;6123015;23;20014;-67
2023/10/02 01:01:29;;;;;;;23.30;11.45;;;20.90;84.00;;;;;;6097695;23;20374;-67
2023/10/02 01:04:09;;;;;;;21.45;11.60;;;20.30;86.50;;;;;;6095530;23;20052;-67
2023/10/02 01:06:54;;;;;;;18.33;10.43;;;21.10;81.50;;;;;;6097202;23;20018;-67
2023/10/02 01:09:28;;;;;;;18.33;12.05;;;19.80;82.60;;;;;;6095980;23;20081;-67
2023/10/02 01:11:57;;;;;;;18.75;11.43;;;20.60;88.30;;;;;;6121776;23;20018;-67
2023/10/02 01:17:10;;;;;;;18.30;10.63;;;21.00;77.00;;;;;;6075148;23;20025;-68
2023/10/02 01:22:44;;;;;;;21.25;10.85;;;20.90;69.70;;;;;;6109530;23;20049;-68
2023/10/02 01:25:13;;;;;;;21.35;11.23;;;20.40;75.80;;;;;;6096859;23;20014;-68
2023/10/02 01:27:40;;;;;;;21.73;12.75;;;20.10;56.30;;;;;;6095410;23;20028;-67
2023/10/02 01:30:15;;;;;;;18.70;11.45;;;20.10;72.70;;;;;;6096044;23;20356;-68
2023/10/02 01:33:12;;;;;;;23.65;12.80;;;20.90;62.40;;;;;;6121761;23;20033;-67
2023/10/02 01:35:51;;;;;;;21.63;11.55;;;20.00;51.80;;;;;;6097018;23;20082;-67
2023/10/02 01:38:26;;;;;;;20.73;11.55;;;20.50;57.10;;;;;;6095956;23;20513;-67
2023/10/02 01:41:04;;;;;;;20.60;11.73;;;21.00;79.60;;;;;;6122688;23;20018;-68
2023/10/02 01:43:44;;;;;;;21.27;12.43;;;20.00;75.60;;;;;;6096448;23;20519;-67
2023/10/02 01:46:11;;;;;;;22.75;12.75;;;19.50;55.90;;;;;;6122539;23;20020;-67
2023/10/02 01:48:41;;;;;;;19.80;12.07;;;20.70;78.00;;;;;;6094609;23;20042;-68
2023/10/02 01:54:16;;;;;;;22.95;13.23;;;20.90;75.90;;;;;;6084943;23;20018;-67
2023/10/02 01:56:45;;;;;;;24.25;12.80;;;20.90;68.30;;;;;;6119397;23;20010;-68
2023/10/02 01:59:19;;;;;;;21.52;12.88;;;19.70;72.40;;;;;;6092643;23;20045;-67
2023/10/02 02:01:46;;;;;;;24.58;13.75;;;20.80;87.30;;;;;;6095785;23;20014;-67
2023/10/02 02:04:15;;;;;;;21.98;12.93;;;20.90;90.00;;;;;;6121860;23;20077;-67
2023/10/02 02:06:51;;;;;;;22.70;13.93;;;21.00;91.90;;;;;;6121286;23;20016;-67
2023/10/02 02:09:37;;;;;;;22.13;13.15;;;19.90;71.00;;;;;;6120970;23;20093;-67
2023/10/02 02:12:05;;;;;;;25.25;14.30;;;20.10;90.50;;;;;;6120509;23;20028;-67
2023/10/02 02:14:51;;;;;;;23.98;13.98;;;20.20;90.70;;;;;;6072031;23;20018;-68
2023/10/02 02:17:27;;;;;;;22.27;13.65;;;19.80;78.50;;;;;;6095294;23;20018;-67
2023/10/02 02:19:56;;;;;;;23.23;14.10;;;20.00;93.70;;;;;;6070607;23;20026;-67
2023/10/02 02:22:25;;;;;;;22.95;14.68;;;20.10;97.50;;;;;;6121640;23;20407;-68
2023/10/02 02:24:51;;;;;;;23.80;13.93;;;20.90;97.40;;;;;;6095458;23;20010;-68
2023/10/02 02:27:19;;;;;;;21.05;14.80;;;19.90;97.60;;;;;;6121497;23;20471;-68
2023/10/02 02:29:47;;;;;;;21.67;14.35;;;20.00;99.30;;;;;;6120045;23;20018;-67
2023/10/02 02:32:12;;;;;;;21.95;15.52;;;20.80;99.90;;;;;;6121331;23;20122;-67
2023/10/02 02:34:38;;;;;;;21.20;15.52;;;19.90;99.90;;;;;;6095617;23;20053;-67
2023/10/02 02:37:06;;;;;;;22.52;15.20;;;19.70;99.90;;;;;;6121338;23;20014;-67
2023/10/02 02:39:37;;;;;;;21.75;14.45;;;20.00;99.90;;;;;;6094019;23;20014;-68
2023/10/02 02:44:46;;;;;;;24.30;15.15;;;20.20;97.40;;;;;;6122032;23;20355;-67
2023/10/02 02:47:16;;;;;;;20.20;14.00;;;20.80;98.70;;;;;;6121340;23;20464;-68
2023/10/02 02:49:48;;;;;;;24.85;15.32;;;20.60;89.40;;;;;;6119991;23;20089;-69
2023/10/02 02:52:26;;;;;;;22.77;15.02;;;20.40;95.10;;;;;;6096203;23;20477;-68
2023/10/02 02:54:59;;;;;;;24.52;15.40;;;19.90;95.70;;;;;;6095584;23;20021;-67
2023/10/02 02:57:30;;;;;;;24.77;14.73;;;19.60;96.10;;;;;;6121491;23;20014;-67
2023/10/02 03:02:52;;;;;;;24.55;15.43;;;19.80;80.50;;;;;;6122007;23;20018;-67
2023/10/02 03:05:21;;;;;;;22.45;14.13;;;20.00;94.70;;;;;;6096599;23;20037;-67
2023/10/02 03:07:49;;;;;;;23.40;14.70;;;19.90;93.80;;;;;;6096388;23;20010;-67
2023/10/02 03:10:17;;;;;;;22.45;12.63;;;19.70;92.50;;;;;;6121469;23;20017;-67
2023/10/02 03:12:50;;;;;;;22.08;13.90;;;20.10;92.00;;;;;;6096006;23;20459;-67
2023/10/02 03:15:20;;;;;;;22.67;14.37;;;19.90;91.10;;;;;;6094603;23;20021;-67
2023/10/02 03:17:48;;;;;;;25.77;14.75;;;19.60;90.80;;;;;;6096559;23;20006;-67
2023/10/02 03:20:24;;;;;;;22.08;13.70;;;19.60;91.00;;;;;;6096401;23;20473;-67
2023/10/02 03:22:55;;;;;;;21.90;14.00;;;19.90;91.90;;;;;;6073066;23;20085;-67
2023/10/02 03:27:55;;;;;;;20.30;13.60;;;19.50;91.80;;;;;;6123343;23;20017;-67
2023/10/02 03:30:35;;;;;;;20.85;13.65;;;19.70;92.70;;;;;;6123677;23;20010;-67
2023/10/02 03:33:17;;;;;;;25.60;14.45;;;19.80;94.00;;;;;;6096803;23;20081;-67
2023/10/02 03:35:56;;;;;;;25.48;15.85;;;20.00;93.10;;;;;;6097839;23;20344;-67
2023/10/02 03:38:23;;;;;;;22.85;15.02;;;19.60;95.20;;;;;;6097410;23;20018;-68
2023/10/02 03:40:54;;;;;;;26.13;15.63;;;19.70;95.20;;;;;;6097600;23;20400;-67
2023/10/02 03:43:34;;;;;;;23.55;15.18;;;19.90;96.00;;;;;;6096035;23;20494;-67
2023/10/02 03:46:01;;;;;;;25.67;15.52;;;20.50;96.70;;;;;;6096861;23;20025;-67
2023/10/02 03:48:28;;;;;;;23.73;15.32;;;20.50;98.00;;;;;;6094683;23;20014;-68
2023/10/02 03:50:56;;;;;;;26.88;16.25;;;19.70;96.10;;;;;;6093907;23;20014;-68
2023/10/02 03:53:29;;;;;;;25.85;15.38;;;19.90;99.90;;;;;;6095316;23;20100;-67
2023/10/02 03:58:52;;;;;;;23.67;16.08;;;20.50;98.70;;;;;;6095980;23;20053;-67
2023/10/02 04:01:31;;;;;;;27.33;16.73;;;19.70;99.90;;;;;;6095783;23;20037;-67
2023/10/02 04:04:19;;;;;;;28.33;16.90;;;20.00;99.90;;;;;;6120898;23;20457;-67
2023/10/02 04:06:47;;;;;;;25.50;15.73;;;19.40;99.90;;;;;;6123664;23;20441;-67
2023/10/02 04:11:43;;;;;;;25.13;16.40;;;19.60;99.90;;;;;;6121991;23;20029;-68
2023/10/02 04:14:18;;;;;;;26.10;16.23;;;19.80;99.90;;;;;;6096515;23;20017;-68
2023/10/02 04:16:48;;;;;;;26.83;17.40;;;19.60;99.60;;;;;;6121691;23;20052;-67
2023/10/02 04:19:15;;;;;;;31.50;16.15;;;19.70;97.40;;;;;;6095706;23;20018;-67
2023/10/02 04:21:42;;;;;;;25.98;17.08;;;19.80;99.90;;;;;;6096941;23;20014;-68
2023/10/02 04:24:09;;;;;;;30.42;17.92;;;20.00;99.90;;;;;;6122510;23;20376;-67
2023/10/02 04:26:36;;;;;;;26.00;17.38;;;19.90;99.90;;;;;;6072491;23;20075;-68
2023/10/02 04:32:10;;;;;;;26.80;17.17;;;19.90;99.90;;;;;;6121517;23;20096;-67
2023/10/02 04:34:37;;;;;;;26.40;16.27;;;19.80;99.90;;;;;;6122377;23;20052;-67
2023/10/02 04:37:22;;;;;;;28.02;16.30;;;19.40;99.90;;;;;;6121162;23;20080;-67
2023/10/02 04:39:53;;;;;;;28.02;17.00;;;20.60;99.90;;;;;;6095153;23;20025;-67
2023/10/02 04:42:21;;;;;;;26.75;16.83;;;19.90;99.90;;;;;;6096260;23;20490;-67
2023/10/02 04:44:48;;;;;;;25.10;16.85;;;18.70;99.90;;;;;;6122276;23;20010;-67
2023/10/02 04:47:19;;;;;;;29.10;16.85;;;19.80;99.90;;;;;;6121534;23;20014;-67
2023/10/02 04:55:41;;;;;;;29.33;16.08;;;19.60;99.90;;;;;;6121236;23;20080;-67
2023/10/02 04:58:17;;;;;;;26.48;16.73;;;20.30;99.90;;;;;;6121637;23;20014;-67
2023/10/02 05:01:24;;;;;;;34.50;17.75;;;19.70;99.90;;;;;;6094292;23;20017;-67
2023/10/02 05:03:30;;;;;;;26.65;17.65;;;19.80;99.90;;;;;;6093885;23;20352;-67
2023/10/02 05:06:02;;;;;;;27.50;17.17;;;19.50;99.90;;;;;;6094929;23;20014;-67
2023/10/02 05:08:41;;;;;;;27.25;16.92;;;20.00;99.90;;;;;;6119990;23;20474;-67
2023/10/02 05:12:22;;;;;;;27.27;17.58;;;19.50;99.90;;;;;;6122666;23;20085;-68
2023/10/02 05:14:09;;;;;;;26.60;17.02;;;19.80;99.90;;;;;;6109054;23;20271;-68
2023/10/02 05:16:38;;;;;;;30.20;17.05;;;19.40;99.90;;;;;;6121913;23;20132;-68
2023/10/02 05:19:08;;;;;;;27.42;15.75;;;19.80;99.90;;;;;;6121252;23;20021;-67
2023/10/02 05:21:50;;;;;;;28.55;16.05;;;20.10;99.90;;;;;;6121274;23;20033;-67
2023/10/02 05:24:18;;;;;;;26.00;16.73;;;20.20;99.90;;;;;;6095015;23;20084;-67
2023/10/02 05:26:46;;;;;;;28.90;17.25;;;20.10;99.90;;;;;;6071545;23;20018;-67
2023/10/02 05:29:36;;;;;;;29.98;17.23;;;19.50;99.90;;;;;;6094940;23;20017;-67
2023/10/02 05:32:23;;;;;;;29.25;17.60;;;19.70;99.90;;;;;;6107926;23;20022;-67
2023/10/02 05:34:59;;;;;;;27.55;16.92;;;19.70;99.90;;;;;;6114219;23;20085;-67
2023/10/02 05:37:31;;;;;;;27.65;17.55;;;20.20;99.90;;;;;;6090920;23;20018;-67
2023/10/02 05:48:15;;;;;;;30.10;18.88;;;19.90;99.90;;;;;;6118435;23;20052;-67
2023/10/02 05:50:48;;;;;;;28.88;17.40;;;19.90;99.90;;;;;;6123215;23;20073;-68
2023/10/02 05:53:19;;;;;;;28.95;17.65;;;19.70;99.90;;;;;;6120572;23;20447;-67
2023/10/02 05:55:57;;;;;;;24.45;16.27;;;19.80;99.90;;;;;;6120757;23;20407;-67
2023/10/02 05:58:32;;;;;;;27.80;17.42;;;19.70;99.90;;;;;;6121794;23;20084;-67
2023/10/02 06:01:04;;;;;;;27.52;18.13;;;19.90;99.90;;;;;;6121422;23;20412;-67
2023/10/02 06:03:34;;;;;;;28.77;17.13;;;20.50;99.90;;;;;;6121269;23;20518;-69
2023/10/02 06:06:17;;;;;;;28.52;16.92;;;19.80;99.90;;;;;;6120001;23;20072;-67
2023/10/02 06:09:28;;;;;;;28.65;17.98;;;19.60;99.90;;;;;;6096159;23;20390;-67
2023/10/02 06:12:02;;;;;;;30.15;17.95;;;20.50;99.90;;;;;;6118501;23;20025;-67
2023/10/02 06:14:28;;;;;;;27.70;18.10;;;20.30;99.90;;;;;;6120403;23;20018;-67
2023/10/02 06:16:54;;;;;;;29.17;18.35;;;20.10;99.90;;;;;;6120918;23;20083;-67
2023/10/02 06:19:20;;;;;;;29.20;17.88;;;19.50;99.90;;;;;;6120201;23;20072;-67
2023/10/02 06:21:47;;;;;;;30.63;18.30;;;20.10;99.90;;;;;;6119124;23;20024;-67
2023/10/02 06:24:19;;;;;;;28.88;18.35;;;20.00;99.90;;;;;;6121459;23;20010;-68
2023/10/02 06:26:58;;;;;;;28.60;17.02;;;19.60;99.90;;;;;;6120041;23;20093;-67
2023/10/02 06:29:35;;;;;;;25.55;16.55;;;19.60;99.90;;;;;;6117229;23;20022;-68
2023/10/02 06:35:00;;;;;;;25.95;16.48;;;19.70;99.90;;;;;;6082384;23;20085;-67
2023/10/02 06:37:33;;;;;;;25.23;16.42;;;19.60;99.90;;;;;;6094175;23;20021;-68
2023/10/02 06:40:06;;;;;;;28.77;17.45;;;19.70;99.90;;;;;;6118717;23;20363;-67
2023/10/02 06:42:32;;;;;;;31.63;19.20;;;19.80;99.90;;;;;;6095051;23;20350;-67
2023/10/02 06:45:01;;;;;;;31.50;18.20;;;20.00;99.90;;;;;;6096631;23;20006;-67
2023/10/02 06:47:30;;;;;;;28.63;18.83;;;19.10;99.90;;;;;;6119218;23;20022;-68
2023/10/02 06:50:03;;;;;;;27.80;18.88;;;19.80;99.90;;;;;;6096851;23;20356;-68
2023/10/02 06:52:32;;;;;;;27.10;17.08;;;19.70;99.90;;;;;;6071097;23;20367;-68
2023/10/02 06:55:00;;;;;;;24.10;16.45;;;19.40;99.90;;;;;;6096506;23;20089;-68
2023/10/02 06:57:26;;;;;;;23.77;16.95;;;19.40;99.90;;;;;;6097802;23;20022;-68
2023/10/02 06:59:52;;;;;;;27.40;16.27;;;19.20;99.90;;;;;;6095515;23;20049;-67
2023/10/02 07:02:19;;;;;;;27.75;17.65;;;19.50;99.90;;;;;;6094706;23;20020;-68
2023/10/02 07:04:47;;;;;;;27.95;18.50;;;19.70;99.90;;;;;;6097152;23;20018;-68
2023/10/02 07:07:33;;;;;;;27.33;17.90;;;20.10;99.90;;;;;;6122220;23;20448;-68
2023/10/02 07:10:08;;;;;;;30.75;17.73;;;19.50;99.90;;;;;;6072374;23;20088;-67
2023/10/02 07:12:41;;;;;;;29.52;18.30;;;19.20;99.90;;;;;;6097920;23;20069;-68
2023/10/02 07:15:10;;;;;;;31.77;18.65;;;19.70;99.90;;;;;;6123658;23;20010;-67
2023/10/02 07:17:47;;;;;;;28.48;17.38;;;20.20;99.90;;;;;;6122214;23;20020;-68
2023/10/02 07:20:15;;;;;;;29.02;17.13;;;19.60;99.90;;;;;;6072925;23;20021;-67
2023/10/02 07:22:42;;;;;;;29.20;18.10;;;20.00;99.90;;;;;;6122250;23;20017;-67
2023/10/02 07:25:09;;;;;;;30.25;17.17;;;20.50;99.90;;;;;;6097402;23;20243;-67
2023/10/02 07:27:37;;;;;;;29.08;17.42;;;20.80;99.90;;;;;;6119791;23;20460;-68
2023/10/02 07:30:04;;;;;;;27.45;16.90;;;19.60;99.90;;;;;;6119542;23;20095;-67
2023/10/02 07:32:37;;;;;;;29.05;18.30;;;20.50;99.90;;;;;;6115665;23;20092;-68
2023/10/02 07:35:21;;;;;;;32.15;18.25;;;19.60;99.90;;;;;;6122687;23;20049;-68
2023/10/02 07:37:58;;;;;;;26.27;16.92;;;19.90;99.90;;;;;;6119115;23;20045;-67
2023/10/02 07:40:27;;;;;;;28.50;18.33;;;20.60;99.90;;;;;;6121702;23;20030;-68
2023/10/02 07:42:53;;;;;;;29.70;17.38;;;19.30;99.90;;;;;;6118347;23;20375;-68
2023/10/02 07:45:25;;;;;;;30.05;16.83;;;19.50;99.90;;;;;;6119964;23;20082;-68
2023/10/02 07:50:38;;;;;;;25.38;16.05;;;19.50;99.90;;;;;;6123865;23;20351;-68
2023/10/02 07:53:05;;;;;;;29.02;17.25;;;19.70;99.90;;;;;;6122360;23;20452;-68
2023/10/02 07:55:33;;;;;;;27.63;17.65;;;20.40;99.90;;;;;;6121870;23;20013;-68
2023/10/02 07:58:00;;;;;;;27.40;16.38;;;19.50;99.90;;;;;;6096356;23;20392;-67
2023/10/02 08:00:40;;;;;;;27.90;18.00;;;20.50;99.90;;;;;;6122041;23;20014;-68
2023/10/02 08:05:56;;;;;;;28.50;17.17;;;19.60;99.90;;;;;;6123257;23;20080;-68
2023/10/02 08:08:25;;;;;;;29.85;17.63;;;19.70;99.90;;;;;;6119450;23;20025;-68
2023/10/02 08:10:52;;;;;;;26.30;16.33;;;19.70;99.90;;;;;;6119968;23;20014;-68
2023/10/02 08:13:32;;;;;;;25.17;16.13;;;20.60;99.90;;;;;;6122215;23;20014;-68
2023/10/02 08:16:14;;;;;;;29.08;16.13;;;19.80;99.90;;;;;;6123624;23;20460;-69
2023/10/02 08:18:57;;;;;;;29.60;17.83;;;19.90;99.90;;;;;;6121547;23;20096;-68
2023/10/02 08:21:37;;;;;;;27.40;16.40;;;20.20;99.90;;;;;;6099128;23;20100;-68
2023/10/02 08:24:10;;;;;;;28.90;16.30;;;20.60;99.90;;;;;;6120153;23;20013;-68
2023/10/02 08:26:40;;;;;;;28.98;16.50;;;19.90;99.90;;;;;;6120201;23;20025;-68
2023/10/02 08:29:08;;;;;;;26.48;15.30;;;19.60;99.90;;;;;;6094912;23;20022;-68
2023/10/02 08:31:44;;;;;;;31.45;15.75;;;19.70;99.90;;;;;;6123221;23;20014;-68
2023/10/02 08:34:12;;;;;;;28.10;16.20;;;20.20;99.90;;;;;;6095388;23;20125;-68
2023/10/02 08:36:39;;;;;;;27.65;16.63;;;19.80;99.90;;;;;;6097061;23;20010;-68
2023/10/02 08:39:05;;;;;;;28.75;15.60;;;19.90;99.90;;;;;;6123200;23;20057;-68
2023/10/02 08:41:43;;;;;;;25.23;16.27;;;20.80;99.90;;;;;;6097169;23;20009;-68
2023/10/02 08:44:10;;;;;;;29.52;16.92;;;20.70;99.90;;;;;;6096469;23;20018;-68
2023/10/02 08:46:36;;;;;;;32.10;17.50;;;20.20;99.90;;;;;;6093666;23;20092;-68
2023/10/02 08:49:01;;;;;;;27.52;15.02;;;19.60;99.90;;;;;;6093747;23;20052;-68
2023/10/02 08:51:35;;;;;;;34.88;18.05;;;19.80;99.90;;;;;;6094872;23;20017;-68
2023/10/02 08:54:05;;;;;;;27.85;15.75;;;19.80;99.90;;;;;;6097655;23;20025;-68
2023/10/02 08:56:48;;;;;;;26.65;16.02;;;19.90;99.90;;;;;;6095344;23;20020;-68
2023/10/02 08:59:18;;;;;;;25.73;15.25;;;19.80;99.90;;;;;;6096833;23;20014;-68
2023/10/02 09:01:47;;;;;;;30.92;17.67;;;19.60;99.90;;;;;;6096444;23;20026;-68
2023/10/02 09:06:58;;;;;;;23.42;14.13;;;19.70;99.90;;;;;;6121821;23;20355;-68
2023/10/02 09:11:53;;;;;;;26.60;15.73;;;20.40;99.90;;;;;;6096135;23;20021;-67
2023/10/02 09:14:22;;;;;;;26.05;16.00;;;20.40;99.90;;;;;;6071869;23;20092;-68
2023/10/02 09:17:07;;;;;;;25.40;14.05;;;19.90;99.90;;;;;;6120220;23;20010;-67
2023/10/02 09:19:37;;;;;;;24.20;15.75;;;19.60;99.90;;;;;;6072041;23;20491;-67
2023/10/02 09:22:07;;;;;;;21.42;12.85;;;20.40;99.90;;;;;;6123270;23;20044;-67
2023/10/02 09:24:55;;;;;;;19.27;10.35;;;19.70;99.90;;;;;;6072311;23;20025;-68
2023/10/02 09:27:23;;;;;;;19.13;11.30;;;19.90;99.90;;;;;;6071676;23;20013;-67
2023/10/02 09:30:15;;;;;;;20.15;11.68;;;19.70;99.90;;;;;;6120954;23;20013;-67
2023/10/02 09:33:04;;;;;;;23.20;12.02;;;20.40;99.90;;;;;;6110430;23;20018;-67
2023/10/02 09:35:32;;;;;;;21.58;13.18;;;20.80;99.90;;;;;;6120708;23;20018;-68
2023/10/02 09:38:10;;;;;;;24.75;14.75;;;20.60;99.90;;;;;;6121235;23;20025;-67
2023/10/02 09:40:54;;;;;;;20.67;12.88;;;20.00;99.90;;;;;;6120948;23;20010;-67
2023/10/02 09:43:37;;;;;;;20.75;11.32;;;19.80;99.90;;;;;;6121485;23;20010;-67
2023/10/02 09:46:06;;;;;;;18.98;9.63;;;20.10;99.90;;;;;;6121179;23;20018;-67
2023/10/02 09:48:46;;;;;;;17.35;10.13;;;20.80;99.90;;;;;;6119759;23;20036;-67
2023/10/02 09:51:30;;;;;;;18.48;9.60;;;20.90;99.90;;;;;;6119456;23;20049;-67
2023/10/02 09:54:18;;;;;;;16.08;9.57;;;19.80;99.90;;;;;;6121150;23;20018;-68
2023/10/02 09:57:11;;;;;;;16.17;9.20;;;20.30;99.90;;;;;;6118641;23;20400;-68
2023/10/02 09:59:48;;;;;;;17.25;9.35;;;20.30;99.90;;;;;;6118168;23;20026;-67
2023/10/02 10:05:02;;;;;;;18.90;10.30;;;20.90;99.90;;;;;;6120941;23;20017;-67
2023/10/02 10:07:46;;;;;;;17.10;9.02;;;20.90;99.90;;;;;;6120693;23;20360;-67
2023/10/02 10:10:28;;;;;;;15.20;9.35;;;20.60;99.90;;;;;;6121727;23;20057;-67
2023/10/02 10:13:09;;;;;;;17.65;9.32;;;20.40;99.90;;;;;;6117272;23;20021;-68
2023/10/02 10:15:37;;;;;;;16.60;9.90;;;20.30;99.90;;;;;;6094930;23;20139;-67
2023/10/02 10:18:12;;;;;;;18.40;8.60;;;20.10;99.90;;;;;;6120396;23;20018;-67
2023/10/02 10:20:38;;;;;;;17.90;9.27;;;19.80;99.90;;;;;;6116187;23;20324;-67
2023/10/02 10:23:31;;;;;;;15.63;8.65;;;20.80;99.90;;;;;;6116839;23;20081;-67
2023/10/02 10:26:07;;;;;;;16.58;8.88;;;19.90;99.90;;;;;;6115997;23;20018;-66
2023/10/02 10:28:50;;;;;;;17.55;9.52;;;19.80;99.90;;;;;;6120497;23;20018;-68
2023/10/02 10:31:29;;;;;;;15.10;7.80;;;20.00;99.90;;;;;;6122606;23;20013;-69
2023/10/02 10:33:56;;;;;;;15.40;8.35;;;19.80;99.90;;;;;;6119928;23;20329;-69
2023/10/02 10:36:38;;;;;;;15.50;8.75;;;19.60;99.90;;;;;;6096575;23;20018;-69
2023/10/02 10:39:30;;;;;;;15.13;8.35;;;20.90;99.90;;;;;;6121902;23;20018;-67
2023/10/02 10:41:57;;;;;;;14.73;8.05;;;20.90;99.90;;;;;;6095630;23;20018;-67
2023/10/02 10:44:32;;;;;;;17.03;9.37;;;19.80;99.90;;;;;;6122735;23;20017;-67
2023/10/02 10:47:02;;;;;;;17.63;8.98;;;20.00;99.90;;;;;;6095708;23;20242;-67
2023/10/02 10:49:27;;;;;;;18.25;9.35;;;20.70;99.90;;;;;;6121618;23;20037;-67
2023/10/02 10:51:55;;;;;;;15.70;8.52;;;19.90;99.90;;;;;;6121093;23;20092;-67
2023/10/02 10:54:30;;;;;;;15.70;9.05;;;20.10;99.90;;;;;;6095998;23;20060;-67
2023/10/02 10:57:22;;;;;;;18.08;9.30;;;20.00;99.90;;;;;;6098277;23;20025;-67
2023/10/02 11:00:28;;;;;;;15.00;8.35;;;20.80;99.90;;;;;;6121226;23;20069;-67
2023/10/02 11:03:19;;;;;;;20.50;9.57;;;19.90;99.90;;;;;;6094902;23;20347;-67
2023/10/02 11:05:45;;;;;;;17.92;9.73;;;21.20;99.90;;;;;;6121263;23;20085;-67
2023/10/02 11:08:25;;;;;;;13.40;8.00;;;20.40;99.90;;;;;;6095677;23;20021;-67
2023/10/02 11:11:06;;;;;;;16.15;8.02;;;20.50;99.90;;;;;;6119138;23;20053;-67
2023/10/02 11:13:55;;;;;;;17.20;9.50;;;20.90;99.90;;;;;;6095110;23;20574;-67
2023/10/02 11:16:48;;;;;;;15.82;8.40;;;20.00;99.90;;;;;;6099469;23;20329;-67
2023/10/02 11:19:21;;;;;;;16.05;8.63;;;19.80;99.90;;;;;;6122607;23;20464;-67
2023/10/02 11:22:15;;;;;;;16.45;8.55;;;20.20;99.90;;;;;;6096922;23;20014;-67
2023/10/02 11:24:45;;;;;;;13.88;8.10;;;20.80;99.90;;;;;;6098012;23;20042;-67
2023/10/02 11:27:14;;;;;;;15.77;8.00;;;21.10;99.90;;;;;;6123334;23;20014;-67
2023/10/02 11:29:41;;;;;;;15.70;7.38;;;21.10;99.90;;;;;;6074288;23;20355;-67
2023/10/02 11:32:23;;;;;;;13.70;7.00;;;21.10;99.90;;;;;;6080890;23;20017;-67
2023/10/02 11:34:59;;;;;;;16.25;7.93;;;21.10;99.90;;;;;;6120901;23;20018;-67
2023/10/02 11:37:26;;;;;;;15.02;8.02;;;21.10;99.90;;;;;;6123876;23;20105;-67
2023/10/02 11:39:56;;;;;;;15.07;7.93;;;21.00;99.90;;;;;;6096729;23;20025;-67
2023/10/02 11:42:23;;;;;;;13.57;7.40;;;21.10;99.90;;;;;;6123496;23;20014;-67
2023/10/02 11:44:49;;;;;;;14.68;7.82;;;20.10;99.90;;;;;;6121918;23;20045;-67
2023/10/02 11:47:15;;;;;;;15.68;7.57;;;21.10;99.90;;;;;;6123566;23;20010;-68
2023/10/02 11:49:42;;;;;;;14.65;7.50;;;20.30;99.90;;;;;;6120368;23;20018;-67
2023/10/02 11:52:08;;;;;;;13.82;7.18;;;21.10;99.90;;;;;;6122299;23;20040;-69
2023/10/02 11:54:39;;;;;;;14.05;7.70;;;21.20;99.90;;;;;;6120216;23;20405;-67
2023/10/02 11:57:12;;;;;;;15.90;8.27;;;21.30;99.90;;;;;;6123376;23;20025;-67
2023/10/02 11:59:43;;;;;;;19.20;8.13;;;21.00;99.90;;;;;;6096692;23;20101;-67
2023/10/02 12:02:13;;;;;;;14.38;7.70;;;20.30;99.90;;;;;;6120969;23;20014;-67
2023/10/02 12:04:39;;;;;;;20.35;7.80;;;20.50;99.90;;;;;;6121350;23;20072;-67
2023/10/02 12:07:05;;;;;;;13.77;7.82;;;21.20;99.90;;;;;;6120075;23;20511;-67
2023/10/02 12:09:33;;;;;;;15.93;8.25;;;21.30;99.90;;;;;;6093173;23;20106;-67
2023/10/02 12:11:59;;;;;;;14.30;8.20;;;20.10;99.90;;;;;;6118039;23;20021;-67
2023/10/02 12:14:29;;;;;;;14.57;7.68;;;20.60;99.90;;;;;;6119638;23;20278;-69
2023/10/02 12:16:57;;;;;;;16.38;8.30;;;21.10;99.90;;;;;;6120277;23;20097;-69
2023/10/02 12:19:32;;;;;;;15.77;8.23;;;21.40;99.90;;;;;;6120787;23;20054;-69
2023/10/02 12:21:59;;;;;;;14.10;7.75;;;21.20;99.90;;;;;;6122973;23;20017;-67
2023/10/02 12:24:25;;;;;;;20.98;8.90;;;21.10;99.90;;;;;;6097311;23;20018;-67
2023/10/02 12:26:52;;;;;;;15.48;8.45;;;21.40;99.90;;;;;;6122854;23;20013;-66
2023/10/02 12:29:18;;;;;;;14.90;8.32;;;20.80;99.90;;;;;;6116393;23;20017;-66
2023/10/02 12:31:44;;;;;;;15.07;8.20;;;20.70;99.90;;;;;;6117962;23;20464;-67
2023/10/02 12:34:10;;;;;;;16.48;9.23;;;21.10;99.90;;;;;;6124154;23;20044;-66
2023/10/02 12:36:36;;;;;;;14.57;7.65;;;21.30;99.90;;;;;;6123451;23;20010;-67
2023/10/02 12:39:04;;;;;;;16.90;8.57;;;20.40;99.90;;;;;;6121053;23;20025;-67
2023/10/02 12:41:30;;;;;;;16.02;8.40;;;20.30;99.90;;;;;;6097399;23;20021;-66
2023/10/02 12:43:56;;;;;;;14.60;8.40;;;21.50;99.90;;;;;;6121702;23;20356;-66
2023/10/02 12:46:29;;;;;;;15.57;7.88;;;21.50;99.90;;;;;;6122577;23;20460;-66
2023/10/02 12:48:57;;;;;;;15.53;9.00;;;21.40;99.90;;;;;;6096603;23;20018;-69
2023/10/02 12:51:25;;;;;;;16.23;8.52;;;21.10;99.90;;;;;;6122577;23;20014;-69
2023/10/02 12:53:51;;;;;;;15.80;9.10;;;21.20;99.90;;;;;;6123612;23;20006;-69
2023/10/02 12:56:19;;;;;;;15.65;9.07;;;20.40;99.90;;;;;;6121567;23;20073;-69
2023/10/02 12:58:48;;;;;;;17.02;9.85;;;21.30;1.00;;;;;;6121403;23;20021;-69
2023/10/02 13:01:16;;;;;;;18.33;9.38;;;21.20;1.00;;;;;;6120348;23;20013;-69
2023/10/02 13:03:44;;;;;;;18.63;9.57;;;21.40;1.00;;;;;;6121676;23;20440;-69
2023/10/02 13:06:14;;;;;;;16.58;8.55;;;21.30;1.00;;;;;;6123536;23;20145;-69
2023/10/02 13:08:44;;;;;;;16.13;9.52;;;21.50;1.00;;;;;;6123276;23;20014;-67
2023/10/02 13:11:12;;;;;;;17.38;9.90;;;20.40;1.00;;;;;;6121151;23;20448;-67
2023/10/02 13:13:45;;;;;;;17.38;10.43;;;21.50;1.00;;;;;;6097291;23;20470;-66
2023/10/02 13:16:11;;;;;;;19.50;10.10;;;21.40;1.00;;;;;;6122395;23;20084;-66
2023/10/02 13:18:41;;;;;;;15.27;9.00;;;21.40;1.00;;;;;;6122649;23;20100;-67
2023/10/02 13:21:13;;;;;;;16.10;9.93;;;20.70;1.00;;;;;;6121270;23;20009;-67
2023/10/02 13:23:40;;;;;;;16.88;9.90;;;20.60;1.00;;;;;;6098300;23;20084;-67
2023/10/02 13:26:10;;;;;;;16.75;9.45;;;21.30;1.00;;;;;;6094391;23;20014;-69
2023/10/02 13:28:41;;;;;;;17.05;10.02;;;21.50;1.00;;;;;;6122252;23;20494;-69
2023/10/02 13:31:17;;;;;;;18.20;10.82;;;21.20;1.00;;;;;;6122255;23;20017;-69
2023/10/02 13:33:52;;;;;;;16.73;10.25;;;20.60;1.00;;;;;;6120182;23;20088;-69
2023/10/02 13:36:22;;;;;;;18.60;10.63;;;21.60;1.00;;;;;;6095231;23;20014;-69
2023/10/02 13:38:56;;;;;;;18.38;10.23;;;21.20;1.00;;;;;;6096282;23;20065;-69
2023/10/02 13:41:26;;;;;;;17.85;10.35;;;20.50;1.00;;;;;;6093073;23;20018;-66
2023/10/02 13:43:55;;;;;;;19.27;10.70;;;21.20;1.00;;;;;;6122230;23;20093;-67
2023/10/02 13:46:22;;;;;;;18.77;10.25;;;21.50;1.00;;;;;;6069127;23;20490;-67
2023/10/02 13:48:49;;;;;;;15.40;9.45;;;20.40;3.20;;;;;;6093595;23;20405;-67
2023/10/02 13:51:18;;;;;;;20.35;11.35;;;21.60;1.00;;;;;;6122344;23;20018;-67
2023/10/02 13:53:45;;;;;;;20.40;12.25;;;20.80;7.20;;;;;;6123148;23;20009;-67
2023/10/02 13:56:16;;;;;;;17.30;10.57;;;21.50;14.10;;;;;;6121493;23;20534;-67
2023/10/02 13:58:51;;;;;;;19.15;10.80;;;21.70;32.70;;;;;;6122876;23;20014;-67
2023/10/02 14:01:26;;;;;;;20.55;12.02;;;21.50;47.50;;;;;;6070379;23;20014;-67